Time;durP1;ratioP1;P1;durP2;ratioP2;P2;SDS_P1;SDS_P2;PMS_P1;PMS_P2;Temp;Humidity;BMP_temperature;BMP_pressure;BME280_temperature;BME280_humidity;BME280_pressure;Samples;Min_cycle;Max_cycle;Signal;HPM_P1;HPM_P2
2023/06/28 00:00:19;;;;;;;;;;;19.10;41.90;;;15.24;73.57;95712.09;4936393;29;19917;-53
2023/06/28 00:02:45;;;;;;;;;;;19.10;42.00;;;15.27;73.12;95716.88;4936815;29;19910;-50
2023/06/28 00:05:12;;;;;;;;;;;19.20;42.10;;;15.27;72.78;95708.84;4935816;29;19911;-48
2023/06/28 00:07:38;;;;;;;;;;;19.20;42.40;;;15.28;73.06;95712.31;4936523;29;20297;-49
2023/06/28 00:10:05;;;;;;;;;;;19.20;42.20;;;15.25;73.64;95705.63;4931852;29;19918;-50
2023/06/28 00:12:33;;;;;;;;;;;19.20;42.20;;;15.24;74.86;95704.03;4932092;29;19941;-53
2023/06/28 00:14:59;;;;;;;;;;;19.20;42.40;;;15.21;74.98;95703.84;4936794;29;19910;-51
2023/06/28 00:17:29;;;;;;;;;;;19.10;42.40;;;15.16;74.11;95704.69;4935653;29;19910;-54
2023/06/28 00:19:59;;;;;;;;;;;19.10;42.40;;;15.09;74.17;95708.84;4936227;29;20013;-51
2023/06/28 00:22:31;;;;;;;;;;;19.10;42.60;;;15.09;74.03;95714.19;4946017;28;19938;-49
2023/06/28 00:24:59;;;;;;;;;;;19.00;42.60;;;15.08;73.73;95715.28;4950815;28;20277;-49
2023/06/28 00:27:26;;;;;;;;;;;19.00;42.70;;;15.03;73.44;95705.41;4936606;29;19910;-51
2023/06/28 00:29:52;;;;;;;;;;;18.90;42.70;;;14.97;75.06;95715.41;4935099;29;19938;-49
2023/06/28 00:32:18;;;;;;;;;;;18.90;42.80;;;14.93;76.26;95711.72;4936272;29;20390;-49
2023/06/28 00:34:44;;;;;;;;;;;18.90;42.90;;;14.89;76.53;95705.34;4935604;29;19910;-49
2023/06/28 00:37:09;;;;;;;;;;;18.80;43.10;;;14.86;76.09;95705.91;4935928;29;19917;-49
2023/06/28 00:39:35;;;;;;;;;;;18.80;43.20;;;14.81;74.95;95712.13;4935378;29;19910;-47
2023/06/28 00:42:02;;;;;;;;;;;18.80;43.30;;;14.79;74.16;95708.13;4936101;29;19914;-48
2023/06/28 00:44:28;;;;;;;;;;;18.80;43.30;;;14.80;73.65;95712.44;4936489;29;19973;-49
2023/06/28 00:46:55;;;;;;;;;;;18.80;43.40;;;14.80;73.35;95702.50;4935332;29;19911;-49
2023/06/28 00:49:31;;;;;;;;;;;18.80;43.50;;;14.83;74.16;95714.53;4935962;29;20659;-49
2023/06/28 00:51:58;;;;;;;;;;;18.80;43.50;;;14.84;74.22;95718.03;4934338;29;20264;-49
2023/06/28 00:54:24;;;;;;;;;;;18.80;43.60;;;14.85;73.94;95714.25;4936107;29;19910;-49
2023/06/28 00:56:51;;;;;;;;;;;18.80;43.60;;;14.87;73.75;95704.03;4934661;29;19911;-53
2023/06/28 00:59:18;;;;;;;;;;;18.80;44.20;;;14.88;73.37;95710.97;4934991;29;19914;-49
2023/06/28 01:01:44;;;;;;;;;;;18.80;43.60;;;14.89;73.63;95707.22;4935346;29;19917;-53
2023/06/28 01:04:13;;;;;;;;;;;18.80;43.70;;;14.89;72.77;95699.97;4949120;28;19964;-50
2023/06/28 01:06:48;;;;;;;;;;;18.80;43.70;;;14.89;72.44;95699.97;4938238;28;19914;-52
2023/06/28 01:09:15;;;;;;;;;;;18.80;43.70;;;14.90;73.38;95706.13;4955320;28;20008;-49
2023/06/28 01:11:41;;;;;;;;;;;18.80;43.70;;;14.90;72.72;95709.63;4930875;29;20009;-50
2023/06/28 01:14:07;;;;;;;;;;;18.80;43.80;;;14.89;72.79;95708.03;4935698;29;19914;-50
2023/06/28 01:16:33;;;;;;;;;;;18.80;43.80;;;14.87;72.87;95720.91;4948947;28;19977;-49
2023/06/28 01:19:03;;;;;;;;;;;18.80;43.80;;;14.84;74.20;95712.66;4950362;28;19910;-53
2023/06/28 01:21:39;;;;;;;;;;;18.80;43.80;;;14.82;75.59;95723.66;4949261;28;19917;-50
2023/06/28 01:24:05;;;;;;;;;;;18.80;44.00;;;14.79;76.62;95719.69;4949619;28;19917;-53
2023/06/28 01:26:32;;;;;;;;;;;18.70;44.00;;;14.74;77.27;95717.06;4935610;29;19914;-53
2023/06/28 01:28:58;;;;;;;;;;;18.70;44.10;;;14.70;77.18;95710.69;4934248;29;20353;-52
2023/06/28 01:31:24;;;;;;;;;;;18.70;44.20;;;14.65;77.20;95710.72;4934753;29;20013;-53
2023/06/28 01:33:50;;;;;;;;;;;18.60;44.20;;;14.58;76.49;95711.09;4930084;29;19966;-54
2023/06/28 01:36:16;;;;;;;;;;;18.60;44.30;;;14.52;77.68;95706.06;4941730;28;20106;-52
2023/06/28 01:38:43;;;;;;;;;;;18.50;44.40;;;14.46;76.37;95707.19;4935124;29;19911;-53
2023/06/28 01:41:11;;;;;;;;;;;18.50;44.50;;;14.39;75.12;95706.75;4933881;29;19979;-52
2023/06/28 01:43:37;;;;;;;;;;;18.40;44.50;;;14.33;74.22;95709.47;4949668;28;20023;-49
2023/06/28 01:46:03;;;;;;;;;;;18.30;44.60;;;14.28;74.87;95706.84;4932296;28;20759;-47
2023/06/28 01:48:29;;;;;;;;;;;18.30;44.70;;;14.21;75.13;95702.91;4945181;28;19934;-53
2023/06/28 01:50:55;;;;;;;;;;;18.20;44.70;;;14.17;75.78;95705.34;4925167;29;19925;-50
2023/06/28 01:53:21;;;;;;;;;;;18.20;44.70;;;14.10;75.87;95705.69;4925389;29;20372;-53
2023/06/28 01:55:47;;;;;;;;;;;18.10;44.70;;;14.06;75.59;95699.28;4934846;29;20317;-50
2023/06/28 01:58:13;;;;;;;;;;;18.10;44.90;;;14.05;75.60;95708.41;4933594;29;19980;-50
2023/06/28 02:00:38;;;;;;;;;;;18.00;44.90;;;14.02;75.10;95711.66;4934338;29;20464;-52
2023/06/28 02:03:04;;;;;;;;;;;18.00;45.00;;;13.99;75.55;95712.22;4934638;29;19917;-53
2023/06/28 02:05:31;;;;;;;;;;;18.00;45.10;;;13.97;75.11;95703.66;4933758;29;19911;-53
2023/06/28 02:07:56;;;;;;;;;;;17.90;45.10;;;13.96;75.30;95704.75;4934630;29;19922;-53
2023/06/28 02:10:24;;;;;;;;;;;17.90;45.20;;;13.95;75.76;95695.13;4927585;29;19914;-49
2023/06/28 02:12:50;;;;;;;;;;;17.90;45.20;;;13.93;75.48;95694.59;4947129;28;20258;-52
2023/06/28 02:15:16;;;;;;;;;;;17.90;45.20;;;13.92;75.88;95698.38;4934638;29;19964;-49
2023/06/28 02:17:42;;;;;;;;;;;17.90;45.30;;;13.90;75.88;95697.84;4933496;29;20399;-53
2023/06/28 02:20:12;;;;;;;;;;;17.90;45.30;;;13.88;75.82;95689.28;4934084;29;19910;-53
2023/06/28 02:22:39;;;;;;;;;;;17.80;45.30;;;13.83;75.80;95695.50;4933092;29;19932;-52
2023/06/28 02:25:06;;;;;;;;;;;17.80;45.40;;;13.79;76.74;95696.38;4934418;29;19949;-51
2023/06/28 02:27:32;;;;;;;;;;;17.80;45.40;;;13.75;76.97;95692.63;4933844;29;20002;-48
2023/06/28 02:29:58;;;;;;;;;;;17.80;45.50;;;13.72;76.60;95691.31;4932501;29;19973;-50
2023/06/28 02:32:30;;;;;;;;;;;17.70;45.50;;;13.64;78.55;95695.41;4934046;29;20361;-50
2023/06/28 02:34:57;;;;;;;;;;;17.70;45.60;;;13.61;78.08;95695.97;4933267;29;19945;-53
2023/06/28 02:37:24;;;;;;;;;;;17.70;45.70;;;13.60;77.85;95694.38;4934114;29;19966;-53
2023/06/28 02:39:50;;;;;;;;;;;17.70;45.80;;;13.60;78.13;95689.03;4931612;29;19950;-53
2023/06/28 02:42:16;;;;;;;;;;;17.70;45.80;;;13.59;77.77;95692.75;4934048;29;19960;-51
2023/06/28 02:44:42;;;;;;;;;;;17.60;45.90;;;13.58;79.24;95691.19;4933966;29;19910;-53
2023/06/28 02:47:07;;;;;;;;;;;17.60;46.00;;;13.57;79.58;95688.75;4928569;29;19951;-53
2023/06/28 02:49:33;;;;;;;;;;;17.60;46.00;;;13.60;79.72;95691.69;4933547;29;19918;-55
2023/06/28 02:51:59;;;;;;;;;;;17.60;46.10;;;13.59;79.56;95686.63;4930720;29;19925;-52
2023/06/28 02:54:25;;;;;;;;;;;17.60;46.20;;;13.58;79.03;95683.16;4927636;29;19910;-49
2023/06/28 02:56:50;;;;;;;;;;;17.60;46.30;;;13.62;78.65;95680.69;4934059;29;20353;-49
2023/06/28 02:59:16;;;;;;;;;;;17.60;46.30;;;13.70;80.91;95682.00;4932026;29;19961;-50
2023/06/28 03:01:42;;;;;;;;;;;17.60;46.30;;;13.72;80.20;95682.50;4933589;29;20293;-49
2023/06/28 03:04:08;;;;;;;;;;;17.70;46.50;;;13.72;79.44;95683.28;4932078;29;19925;-49
2023/06/28 03:06:35;;;;;;;;;;;17.70;46.50;;;13.77;79.53;95687.81;4933010;29;19910;-49
2023/06/28 03:09:01;;;;;;;;;;;17.70;46.50;;;13.78;78.99;95687.50;4933741;29;19914;-51
2023/06/28 03:11:27;;;;;;;;;;;17.70;46.60;;;13.79;77.88;95691.81;4926027;29;20062;-49
2023/06/28 03:13:53;;;;;;;;;;;17.70;46.60;;;13.86;74.58;95683.44;4933905;29;19949;-52
2023/06/28 03:16:18;;;;;;;;;;;17.80;46.70;;;13.92;75.29;95676.16;4933325;29;19968;-50
2023/06/28 03:18:44;;;;;;;;;;;17.80;46.60;;;13.96;76.28;95671.81;4933921;29;19930;-51
2023/06/28 03:21:10;;;;;;;;;;;17.90;46.60;;;13.98;75.81;95667.78;4933238;29;19910;-49
2023/06/28 03:23:37;;;;;;;;;;;17.90;46.60;;;13.99;76.77;95669.38;4932584;29;20274;-49
2023/06/28 03:26:02;;;;;;;;;;;17.90;46.50;;;13.96;75.79;95659.22;4933906;29;19914;-50
2023/06/28 03:28:28;;;;;;;;;;;17.90;46.50;;;13.95;75.24;95654.97;4933112;29;19910;-50
2023/06/28 03:30:54;;;;;;;;;;;17.90;46.50;;;13.98;75.74;95667.00;4933040;29;19914;-50
2023/06/28 03:33:19;;;;;;;;;;;18.00;46.60;;;14.03;75.28;95673.06;4933604;29;20365;-49
2023/06/28 03:35:45;;;;;;;;;;;18.00;46.60;;;14.11;74.46;95677.03;4932705;29;20001;-49
2023/06/28 03:38:11;;;;;;;;;;;18.00;46.50;;;14.16;74.60;95671.59;4933382;29;19917;-49
2023/06/28 03:40:36;;;;;;;;;;;18.10;46.60;;;14.21;73.52;95670.75;4932343;29;20029;-51
2023/06/28 03:43:02;;;;;;;;;;;18.10;46.60;;;14.28;73.47;95668.53;4933533;29;19957;-50
2023/06/28 03:45:29;;;;;;;;;;;18.10;46.50;;;14.27;74.41;95656.22;4933723;29;20009;-50
2023/06/28 03:47:55;;;;;;;;;;;18.20;46.50;;;14.27;74.02;95661.59;4932451;29;19911;-52
2023/06/28 03:50:21;;;;;;;;;;;18.20;46.50;;;14.30;73.85;95669.84;4932950;29;19925;-50
2023/06/28 03:52:46;;;;;;;;;;;18.20;46.50;;;14.38;73.51;95671.09;4924217;29;19915;-50
2023/06/28 03:55:12;;;;;;;;;;;18.30;46.50;;;14.42;73.69;95661.41;4933417;29;20432;-54
2023/06/28 03:57:39;;;;;;;;;;;18.40;46.50;;;14.44;71.94;95653.84;4936741;29;19932;-48
2023/06/28 04:00:10;;;;;;;;;;;18.40;46.50;;;14.46;71.92;95656.28;4924952;29;19910;-49
2023/06/28 04:02:35;;;;;;;;;;;18.40;46.40;;;14.49;72.06;95655.69;4936928;29;19914;-51
2023/06/28 04:05:02;;;;;;;;;;;18.50;46.40;;;14.51;73.14;95658.94;4936192;29;19936;-51
2023/06/28 04:07:28;;;;;;;;;;;18.50;46.40;;;14.51;74.04;95649.00;4936538;29;20420;-51
2023/06/28 04:09:54;;;;;;;;;;;18.50;46.30;;;14.53;74.90;95657.53;4934199;29;19917;-54
2023/06/28 04:12:20;;;;;;;;;;;18.60;46.30;;;14.55;76.14;95657.25;4931205;29;20381;-50
2023/06/28 04:14:46;;;;;;;;;;;18.60;46.30;;;14.53;77.48;95656.75;4936813;29;19919;-52
2023/06/28 04:17:12;;;;;;;;;;;18.60;46.40;;;14.55;77.53;95658.06;4935854;29;19973;-50
2023/06/28 04:19:38;;;;;;;;;;;18.70;46.50;;;14.58;77.28;95652.13;4936178;29;19910;-49
2023/06/28 04:22:04;;;;;;;;;;;18.70;46.50;;;14.60;76.68;95659.06;4934967;29;19944;-49
2023/06/28 04:24:29;;;;;;;;;;;18.70;46.50;;;14.55;76.29;95658.06;4936873;29;19910;-53
2023/06/28 04:27:00;;;;;;;;;;;18.70;46.50;;;14.62;77.67;95659.59;4936472;29;19933;-52
2023/06/28 04:29:29;;;;;;;;;;;18.80;46.50;;;14.68;78.27;95661.09;4929623;29;19911;-47
2023/06/28 04:32:03;;;;;;;;;;;18.80;46.60;;;14.70;79.83;95656.28;4936539;29;19947;-48
2023/06/28 04:34:29;;;;;;;;;;;18.80;46.60;;;14.72;78.73;95656.75;4935404;29;19911;-50
2023/06/28 04:36:57;;;;;;;;;;;18.90;46.70;;;14.71;78.46;95658.66;4936286;29;20375;-52
2023/06/28 04:39:23;;;;;;;;;;;18.90;46.70;;;14.75;78.72;95664.22;4935944;29;19914;-53
2023/06/28 04:41:48;;;;;;;;;;;18.90;46.80;;;14.74;79.66;95668.00;4935317;29;19918;-52
2023/06/28 04:44:15;;;;;;;;;;;18.90;46.80;;;14.76;78.98;95665.81;4936261;29;19910;-51
2023/06/28 04:46:44;;;;;;;;;;;19.00;46.80;;;14.80;78.41;95673.00;4935092;29;19915;-49
2023/06/28 04:49:10;;;;;;;;;;;19.00;46.80;;;14.86;77.95;95668.38;4935679;29;19917;-50
2023/06/28 04:51:36;;;;;;;;;;;19.10;46.90;;;14.91;79.97;95665.59;4960971;23;19930;-46
2023/06/28 04:54:02;;;;;;;;;;;19.10;46.90;;;14.98;78.41;95670.63;4971729;28;20283;-48
2023/06/28 04:56:28;;;;;;;;;;;19.20;47.00;;;14.99;75.60;95662.28;4965758;28;19914;-45
2023/06/28 04:58:54;;;;;;;;;;;19.20;46.90;;;15.02;72.53;95661.72;4972263;28;20287;-46
2023/06/28 05:01:20;;;;;;;;;;;19.30;46.80;;;15.09;72.51;95655.19;4980344;28;19933;-51
2023/06/28 05:03:47;;;;;;;;;;;19.30;46.70;;;15.15;71.91;95654.00;4994382;28;19952;-46
2023/06/28 05:06:13;;;;;;;;;;;19.40;46.70;;;15.24;72.39;95655.75;4981949;28;19946;-46
2023/06/28 05:08:39;;;;;;;;;;;19.50;46.60;;;15.32;71.79;95653.47;4987613;28;19992;-46
2023/06/28 05:11:07;;;;;;;;;;;19.60;46.60;;;15.38;72.32;95658.47;4980002;28;19964;-46
2023/06/28 05:13:33;;;;;;;;;;;19.60;46.50;;;15.42;71.48;95656.03;4994621;28;19953;-48
2023/06/28 05:15:58;;;;;;;;;;;19.70;46.40;;;15.49;71.65;95661.81;4990788;28;19960;-46
2023/06/28 05:18:24;;;;;;;;;;;19.80;46.40;;;15.55;71.82;95654.47;4983926;28;19979;-46
2023/06/28 05:20:50;;;;;;;;;;;19.90;46.30;;;15.59;72.77;95661.63;4994237;28;19919;-47
2023/06/28 05:23:20;;;;;;;;;;;19.90;46.20;;;15.71;71.55;95661.19;4989647;28;19910;-50
2023/06/28 05:25:46;;;;;;;;;;;20.00;46.20;;;15.78;71.63;95653.53;4989459;28;20276;-46
2023/06/28 05:28:14;;;;;;;;;;;20.10;46.10;;;15.86;71.86;95660.94;4980215;28;19925;-49
2023/06/28 05:30:43;;;;;;;;;;;20.20;46.10;;;15.91;69.11;95654.66;4975428;28;20364;-46
2023/06/28 05:33:10;;;;;;;;;;;20.30;46.10;;;15.97;66.36;95658.84;4967605;28;19947;-50
2023/06/28 05:35:37;;;;;;;;;;;20.30;46.00;;;16.04;64.07;95653.88;4980435;28;19909;-45
2023/06/28 05:38:05;;;;;;;;;;;20.40;45.70;;;16.11;63.20;95657.00;4989733;28;20039;-47
2023/06/28 05:40:32;;;;;;;;;;;20.40;45.80;;;16.19;62.49;95663.56;4989072;28;20338;-49
2023/06/28 05:42:58;;;;;;;;;;;20.50;45.50;;;16.25;62.70;95656.19;4977523;28;19913;-51
2023/06/28 05:45:25;;;;;;;;;;;20.60;45.50;;;16.31;63.50;95653.09;4969587;28;19909;-46
2023/06/28 05:47:51;;;;;;;;;;;20.60;45.30;;;16.36;63.25;95660.28;4972400;28;19914;-47
2023/06/28 05:50:18;;;;;;;;;;;20.70;45.20;;;16.37;63.99;95664.56;4974906;28;19999;-47
2023/06/28 05:52:44;;;;;;;;;;;20.70;45.10;;;16.42;63.26;95673.31;4971428;28;19917;-48
2023/06/28 05:55:11;;;;;;;;;;;20.70;45.00;;;16.48;63.22;95665.94;4973542;28;19909;-48
2023/06/28 05:57:37;;;;;;;;;;;20.80;44.90;;;16.52;61.32;95671.53;4972283;28;19953;-46
2023/06/28 06:00:09;;;;;;;;;;;20.90;44.80;;;16.57;60.77;95671.41;4970123;28;20036;-47
2023/06/28 06:02:35;;;;;;;;;;;20.90;44.70;;;16.60;60.81;95673.50;4972007;28;19910;-48
2023/06/28 06:05:03;;;;;;;;;;;21.00;44.60;;;16.66;61.08;95677.69;4970393;28;19937;-47
2023/06/28 06:07:29;;;;;;;;;;;21.00;44.40;;;16.68;61.45;95685.47;4972593;28;19909;-46
2023/06/28 06:09:56;;;;;;;;;;;21.10;44.40;;;16.69;61.30;95687.03;4971370;28;19917;-50
2023/06/28 06:12:23;;;;;;;;;;;21.10;44.30;;;16.72;61.87;95694.50;4963524;28;19961;-49
2023/06/28 06:14:50;;;;;;;;;;;21.10;44.30;;;16.75;61.85;95691.22;4985211;28;19964;-46
2023/06/28 06:17:19;;;;;;;;;;;21.10;44.20;;;16.77;63.06;95702.50;4976296;28;19918;-46
2023/06/28 06:19:45;;;;;;;;;;;21.10;44.80;;;16.76;62.98;95692.84;4972344;28;19910;-45
2023/06/28 06:22:11;;;;;;;;;;;21.10;44.20;;;16.73;63.11;95694.19;4979089;28;19914;-46
2023/06/28 06:24:37;;;;;;;;;;;21.10;44.20;;;16.72;63.23;95694.50;4972049;28;19910;-48
2023/06/28 06:27:04;;;;;;;;;;;21.10;44.20;;;16.73;62.73;95704.94;4972462;28;20064;-50
2023/06/28 06:29:30;;;;;;;;;;;21.10;44.30;;;16.65;63.44;95703.78;4971257;28;19916;-46
2023/06/28 06:31:56;;;;;;;;;;;21.10;44.20;;;16.64;63.27;95701.41;4970082;28;19914;-49
2023/06/28 06:34:22;;;;;;;;;;;21.00;44.20;;;16.62;63.98;95711.66;4972186;28;19924;-46
2023/06/28 06:36:47;;;;;;;;;;;21.00;44.20;;;16.58;63.76;95706.09;4972729;28;19914;-46
2023/06/28 06:39:13;;;;;;;;;;;21.00;44.20;;;16.58;63.73;95702.59;4980835;28;19914;-46
2023/06/28 06:41:39;;;;;;;;;;;21.00;44.30;;;16.54;63.90;95696.22;4967218;28;20507;-48
2023/06/28 06:44:05;;;;;;;;;;;21.00;44.30;;;16.56;63.46;95699.41;4972534;28;20008;-47
2023/06/28 06:46:30;;;;;;;;;;;20.90;44.20;;;16.60;63.51;95697.69;4972018;28;19935;-46
2023/06/28 06:48:56;;;;;;;;;;;20.90;44.20;;;16.60;63.85;95693.09;4972821;28;19916;-48
2023/06/28 06:51:22;;;;;;;;;;;20.90;44.20;;;16.63;64.30;95689.81;4971669;28;19922;-49
2023/06/28 06:53:48;;;;;;;;;;;21.00;44.20;;;16.68;63.63;95685.47;4971379;28;19913;-47
2023/06/28 06:56:21;;;;;;;;;;;21.00;44.20;;;16.75;63.52;95692.03;4972332;28;20462;-48
2023/06/28 06:58:47;;;;;;;;;;;21.10;44.20;;;16.80;62.84;95694.63;4971833;28;19920;-46
2023/06/28 07:01:13;;;;;;;;;;;21.20;44.10;;;16.90;62.72;95698.22;4972258;28;19909;-46
2023/06/28 07:03:39;;;;;;;;;;;21.30;44.10;;;16.97;62.50;95698.59;4972295;28;19916;-46
2023/06/28 07:06:06;;;;;;;;;;;21.40;44.00;;;17.02;62.20;95701.19;4971503;28;19909;-46
2023/06/28 07:08:31;;;;;;;;;;;21.50;43.90;;;17.04;62.17;95704.34;4972414;28;20264;-54
2023/06/28 07:10:57;;;;;;;;;;;21.50;43.70;;;17.12;61.99;95706.34;4971247;28;19913;-46
2023/06/28 07:13:23;;;;;;;;;;;21.70;43.70;;;17.21;61.50;95709.91;4972021;28;19910;-46
2023/06/28 07:15:49;;;;;;;;;;;21.80;43.70;;;17.28;61.48;95714.88;4971332;28;19917;-52
2023/06/28 07:18:16;;;;;;;;;;;21.90;43.50;;;17.37;60.90;95712.25;4963196;28;19917;-47
2023/06/28 07:20:41;;;;;;;;;;;22.00;43.40;;;17.48;60.96;95717.06;4972094;28;19910;-48
2023/06/28 07:23:07;;;;;;;;;;;22.10;43.30;;;17.55;60.06;95722.06;4970336;28;19963;-47
2023/06/28 07:25:33;;;;;;;;;;;22.20;43.20;;;17.62;60.28;95719.72;4972162;28;20001;-46
2023/06/28 07:27:59;;;;;;;;;;;22.40;43.10;;;17.73;60.40;95734.53;4971422;28;19956;-49
2023/06/28 07:30:25;;;;;;;;;;;22.50;43.00;;;17.82;59.73;95723.84;4972423;28;19910;-52
2023/06/28 07:32:50;;;;;;;;;;;22.60;42.80;;;17.92;59.08;95725.50;4975418;28;19993;-48
2023/06/28 07:35:16;;;;;;;;;;;22.80;42.70;;;18.09;58.63;95727.50;4974828;28;19992;-49
2023/06/28 07:37:42;;;;;;;;;;;23.00;42.50;;;18.17;58.97;95727.53;4970844;28;20401;-50
2023/06/28 07:40:08;;;;;;;;;;;23.20;42.40;;;18.34;57.87;95732.25;4978981;28;20273;-47
2023/06/28 07:42:36;;;;;;;;;;;23.40;42.20;;;18.39;58.32;95732.09;4973613;28;19914;-46
2023/06/28 07:45:02;;;;;;;;;;;23.60;42.00;;;18.54;56.51;95728.19;4973585;28;19964;-54
2023/06/28 07:47:28;;;;;;;;;;;23.80;41.80;;;18.60;56.81;95726.16;4975674;28;19914;-48
2023/06/28 07:49:54;;;;;;;;;;;23.90;41.60;;;18.58;55.90;95734.53;4983071;28;19975;-46
2023/06/28 07:52:19;;;;;;;;;;;24.10;41.40;;;18.80;55.33;95736.41;4989132;28;19918;-52
2023/06/28 07:54:45;;;;;;;;;;;24.20;41.30;;;18.76;54.47;95726.56;4983133;28;19917;-52
2023/06/28 07:57:11;;;;;;;;;;;24.30;41.00;;;18.64;55.51;95724.41;4980636;28;19910;-51
2023/06/28 07:59:37;;;;;;;;;;;24.40;40.90;;;18.90;54.93;95719.16;5000879;28;20478;-47
2023/06/28 08:02:03;;;;;;;;;;;24.50;40.70;;;19.03;56.03;95723.63;4982252;28;20054;-49
2023/06/28 08:04:29;;;;;;;;;;;24.60;40.60;;;19.08;54.76;95719.97;4988944;28;20423;-48
2023/06/28 08:06:55;;;;;;;;;;;24.70;40.50;;;19.15;53.61;95723.81;4988056;28;19913;-49
2023/06/28 08:09:20;;;;;;;;;;;24.80;40.30;;;19.23;53.99;95724.13;4994553;28;20376;-48
2023/06/28 08:11:46;;;;;;;;;;;25.00;40.10;;;19.19;54.97;95727.44;4977109;28;19914;-49
2023/06/28 08:14:12;;;;;;;;;;;25.20;39.90;;;19.54;54.41;95735.56;4982803;28;19915;-49
2023/06/28 08:16:38;;;;;;;;;;;25.30;39.80;;;19.86;54.02;95733.50;4987018;28;19918;-48
2023/06/28 08:19:03;;;;;;;;;;;25.60;39.60;;;19.87;52.28;95727.00;4975937;28;19935;-48
2023/06/28 08:21:29;;;;;;;;;;;25.90;39.50;;;20.09;52.32;95723.31;4981329;28;19910;-47
2023/06/28 08:23:55;;;;;;;;;;;26.00;39.30;;;20.29;51.89;95724.53;4995220;28;19913;-49
2023/06/28 08:26:20;;;;;;;;;;;26.30;39.20;;;20.33;53.03;95720.06;4975637;28;19916;-47
2023/06/28 08:28:46;;;;;;;;;;;26.50;39.00;;;20.56;51.64;95718.75;4980581;28;20321;-47
2023/06/28 08:31:13;;;;;;;;;;;26.70;38.90;;;20.59;50.80;95719.19;4994155;28;20391;-46
2023/06/28 08:33:39;;;;;;;;;;;26.90;38.70;;;20.90;50.62;95717.00;4994407;28;19963;-48
2023/06/28 08:36:05;;;;;;;;;;;27.10;38.50;;;20.98;49.57;95713.41;4988063;28;20375;-49
2023/06/28 08:38:30;;;;;;;;;;;27.20;38.30;;;20.82;49.99;95714.31;4994404;28;20008;-49
2023/06/28 08:40:56;;;;;;;;;;;27.40;38.10;;;21.16;50.18;95721.44;4984354;28;19996;-49
2023/06/28 08:43:24;;;;;;;;;;;27.60;38.00;;;21.38;48.67;95726.59;4988469;28;19913;-50
2023/06/28 08:45:50;;;;;;;;;;;27.80;37.70;;;21.67;48.15;95727.63;4980229;28;19917;-57
2023/06/28 08:48:18;;;;;;;;;;;28.00;37.60;;;21.93;48.50;95728.19;4969365;28;19997;-50
2023/06/28 08:50:45;;;;;;;;;;;28.20;37.40;;;22.18;46.46;95726.38;4993408;28;20306;-51
2023/06/28 08:53:21;;;;;;;;;;;28.50;37.20;;;22.42;46.38;95721.34;4988485;28;20334;-47
2023/06/28 08:55:48;;;;;;;;;;;28.70;37.00;;;22.55;46.58;95729.16;4994019;28;19921;-47
2023/06/28 08:58:15;;;;;;;;;;;28.90;36.80;;;22.50;45.78;95728.56;4984235;28;20394;-50
2023/06/28 09:00:42;;;;;;;;;;;29.10;36.50;;;22.58;45.61;95728.47;4989831;28;20372;-47
2023/06/28 09:03:10;;;;;;;;;;;29.20;36.30;;;23.01;44.26;95729.09;4983859;28;20296;-49
2023/06/28 09:05:37;;;;;;;;;;;29.50;36.20;;;23.39;43.90;95728.69;4976181;28;19913;-49
2023/06/28 09:08:05;;;;;;;;;;;29.80;35.90;;;23.65;43.26;95719.34;4993703;28;19919;-48
2023/06/28 09:10:31;;;;;;;;;;;30.00;35.60;;;23.94;43.54;95727.22;4989013;28;19909;-50
2023/06/28 09:12:58;;;;;;;;;;;30.40;35.50;;;23.96;42.46;95726.84;4985552;28;19962;-50
2023/06/28 09:15:24;;;;;;;;;;;30.40;35.10;;;24.05;41.82;95726.69;4990609;28;19915;-48
2023/06/28 09:17:50;;;;;;;;;;;30.60;35.00;;;24.40;41.25;95730.34;4985787;28;19909;-49
2023/06/28 09:20:17;;;;;;;;;;;30.80;34.80;;;24.67;40.82;95730.69;4993386;28;20291;-48
2023/06/28 09:22:53;;;;;;;;;;;31.10;34.50;;;25.22;40.17;95730.81;4984233;28;19910;-48
2023/06/28 09:25:19;;;;;;;;;;;31.40;34.30;;;25.59;38.44;95728.50;5006085;28;19909;-47
2023/06/28 09:27:45;;;;;;;;;;;31.80;34.00;;;25.80;37.42;95723.50;4993495;28;19996;-51
2023/06/28 09:30:21;;;;;;;;;;;32.20;33.70;;;26.28;36.62;95721.31;4990729;28;20008;-49
2023/06/28 09:32:51;;;;;;;;;;;32.60;33.30;;;26.79;35.13;95719.47;4992779;28;19921;-48
2023/06/28 09:35:23;;;;;;;;;;;32.90;32.90;;;27.41;34.50;95712.63;4976178;28;19937;-49
2023/06/28 09:37:54;;;;;;;;;;;33.30;32.60;;;27.95;34.01;95712.53;4964168;28;20051;-50
2023/06/28 09:40:20;;;;;;;;;;;33.80;32.30;;;28.35;33.68;95712.56;4982335;28;19917;-48
2023/06/28 09:42:49;;;;;;;;;;;34.20;32.00;;;27.94;33.27;95717.22;4973688;28;19916;-50
2023/06/28 09:45:28;;;;;;;;;;;34.40;31.70;;;28.43;31.97;95712.69;4962263;28;20462;-51
2023/06/28 09:48:03;;;;;;;;;;;34.70;31.30;;;29.08;30.74;95708.53;4973786;28;20369;-48
2023/06/28 09:50:42;;;;;;;;;;;35.20;31.10;;;29.47;30.48;95701.34;4972360;28;20292;-49
2023/06/28 09:53:09;;;;;;;;;;;35.50;30.70;;;30.02;29.99;95703.16;4982959;28;19917;-49
2023/06/28 09:55:41;;;;;;;;;;;35.80;30.50;;;30.48;30.00;95696.25;4978699;28;19909;-51
2023/06/28 09:58:17;;;;;;;;;;;36.20;30.30;;;30.51;28.08;95699.00;4971983;28;19952;-48
2023/06/28 10:00:46;;;;;;;;;;;36.50;30.00;;;30.16;29.11;95702.44;4978861;28;19909;-50
2023/06/28 10:03:16;;;;;;;;;;;36.70;29.60;;;30.15;28.89;95703.63;4972529;28;19914;-56
2023/06/28 10:05:45;;;;;;;;;;;36.90;29.40;;;30.17;29.68;95693.00;4976779;28;19917;-49
2023/06/28 10:08:15;;;;;;;;;;;37.10;29.20;;;29.81;29.17;95694.88;4981834;28;19952;-48
2023/06/28 10:10:44;;;;;;;;;;;37.20;28.90;;;29.84;29.97;95689.41;4981474;28;19949;-49
2023/06/28 10:13:20;;;;;;;;;;;37.20;28.70;;;30.25;28.87;95678.16;4973921;28;19916;-48
2023/06/28 10:16:07;;;;;;;;;;;37.20;28.70;;;30.74;27.72;95689.56;4966589;28;19952;-50
2023/06/28 10:18:33;;;;;;;;;;;37.30;28.50;;;30.99;26.78;95686.84;4985487;28;20007;-46
2023/06/28 10:21:06;;;;;;;;;;;37.60;28.30;;;31.14;28.14;95685.66;4976478;28;20351;-48
2023/06/28 10:23:36;;;;;;;;;;;37.80;28.10;;;31.78;27.80;95687.47;4968105;28;19910;-49
2023/06/28 10:26:03;;;;;;;;;;;38.10;28.10;;;32.08;26.34;95686.19;4983865;28;19913;-53
2023/06/28 10:28:34;;;;;;;;;;;38.50;27.80;;;31.48;26.43;95686.00;4983269;28;19941;-51
2023/06/28 10:31:04;;;;;;;;;;;38.80;27.50;;;31.59;26.42;95688.72;4984240;28;20421;-50
2023/06/28 10:33:32;;;;;;;;;;;39.00;27.20;;;31.87;25.64;95685.09;4992267;28;19913;-50
2023/06/28 10:36:02;;;;;;;;;;;39.30;27.10;;;32.29;25.46;95693.53;4987513;28;19917;-48
2023/06/28 10:38:38;;;;;;;;;;;39.70;26.90;;;33.00;24.23;95687.56;4992362;28;19917;-48
2023/06/28 10:41:06;;;;;;;;;;;40.10;26.70;;;33.29;23.82;95690.03;4974794;28;20285;-50
2023/06/28 10:43:32;;;;;;;;;;;40.50;26.30;;;33.46;23.50;95685.50;4988122;28;19909;-55
2023/06/28 10:45:58;;;;;;;;;;;40.90;26.20;;;33.69;23.64;95688.44;4975774;28;19920;-48
2023/06/28 10:48:28;;;;;;;;;;;41.20;25.90;;;34.01;23.34;95692.78;4980129;28;19909;-47
2023/06/28 10:51:00;;;;;;;;;;;41.60;25.80;;;34.03;22.95;95691.19;4990937;28;20469;-52
2023/06/28 10:53:28;;;;;;;;;;;41.90;25.50;;;34.45;22.78;95691.78;4984278;23;19972;-47
2023/06/28 10:56:10;;;;;;;;;;;42.10;25.30;;;34.19;22.31;95692.56;4968258;28;19918;-47
2023/06/28 10:58:43;;;;;;;;;;;42.30;24.90;;;33.92;22.92;95685.00;4971559;28;20008;-48
2023/06/28 11:01:12;;;;;;;;;;;42.50;24.70;;;33.38;23.64;95679.28;4954828;28;19964;-51
2023/06/28 11:03:43;;;;;;;;;;;42.60;25.10;;;33.76;23.59;95693.88;4972830;28;19910;-47
2023/06/28 11:06:13;;;;;;;;;;;42.60;24.50;;;33.76;23.84;95684.81;4974904;28;19932;-49
2023/06/28 11:08:44;;;;;;;;;;;42.60;24.30;;;33.89;23.39;95682.28;4977042;28;19910;-50
2023/06/28 11:11:35;;;;;;;;;;;42.40;24.20;;;33.77;23.99;95681.63;4975271;28;20407;-52
2023/06/28 11:14:22;;;;;;;;;;;42.10;24.90;;;33.35;24.11;95680.13;4972334;28;19913;-51
2023/06/28 11:16:49;;;;;;;;;;;41.70;24.30;;;32.89;24.57;95686.81;4981155;28;19910;-52